createdAt,value
2022-12-27T00:00:55.359Z,100904.22
2022-12-27T00:03:22.527Z,100910.41
2022-12-27T00:05:49.555Z,100913.91
2022-12-27T00:08:16.679Z,100911.25
2022-12-27T00:10:43.606Z,100904.19
2022-12-27T00:13:10.502Z,100891.88
2022-12-27T00:15:37.373Z,100889.34
2022-12-27T00:18:04.513Z,100881.34
2022-12-27T00:20:31.473Z,100887.53
2022-12-27T00:23:00.365Z,100884.81
2022-12-27T00:25:27.218Z,100894.50
2022-12-27T00:27:54.171Z,100889.19
2022-12-27T00:30:21.067Z,100889.16
2022-12-27T00:32:47.989Z,100885.69
2022-12-27T00:35:14.914Z,100866.28
2022-12-27T00:37:41.836Z,100874.19
2022-12-27T00:40:09.603Z,100866.25
2022-12-27T00:42:36.491Z,100858.19
2022-12-27T00:45:03.569Z,100865.38
2022-12-27T00:47:30.445Z,100862.75
2022-12-27T00:49:57.369Z,100854.84
2022-12-27T00:52:24.337Z,100835.56
2022-12-27T00:54:51.237Z,100834.69
2022-12-27T00:57:18.835Z,100831.16
2022-12-27T00:59:45.764Z,100823.22
2022-12-27T01:02:12.651Z,100829.38
2022-12-27T01:04:39.672Z,100836.44
2022-12-27T01:07:06.506Z,100840.00
2022-12-27T01:09:33.343Z,100857.53
2022-12-27T01:12:00.272Z,100863.69
2022-12-27T01:14:27.224Z,100861.09
2022-12-27T01:16:54.182Z,100856.72
2022-12-27T01:19:21.049Z,100850.59
2022-12-27T01:21:47.908Z,100830.31
2022-12-27T01:24:14.697Z,100838.28
2022-12-27T01:26:41.649Z,100841.81
2022-12-27T01:29:12.503Z,100834.75
2022-12-27T01:31:39.457Z,100832.16
2022-12-27T01:34:06.378Z,100832.16
2022-12-27T01:36:33.248Z,100840.06
2022-12-27T01:39:01.124Z,100840.94
2022-12-27T01:41:54.936Z,100832.22
2022-12-27T01:44:40.043Z,100826.94
2022-12-27T01:47:45.742Z,100833.03
2022-12-27T01:50:21.910Z,100841.88
2022-12-27T01:53:19.012Z,100848.97
2022-12-27T01:55:54.530Z,100842.91
2022-12-27T01:58:53.659Z,100839.50
2022-12-27T02:01:25.149Z,100831.66
2022-12-27T02:03:59.815Z,100815.16
2022-12-27T02:06:29.965Z,100818.75
2022-12-27T02:09:19.708Z,100821.38
2022-12-27T02:11:51.795Z,100810.84
2022-12-27T02:14:32.876Z,100833.81
2022-12-27T02:17:03.359Z,100823.22
2022-12-27T02:19:42.681Z,100820.81
2022-12-27T02:22:52.610Z,100834.00
2022-12-27T02:25:28.421Z,100827.81
2022-12-27T02:28:30.877Z,100807.63
2022-12-27T02:31:08.455Z,100826.13
2022-12-27T02:33:43.506Z,100826.97
2022-12-27T02:36:14.741Z,100841.06
2022-12-27T02:38:48.172Z,100836.66
2022-12-27T02:41:34.388Z,100819.87
2022-12-27T02:44:20.140Z,100832.28
2022-12-27T02:47:06.971Z,100833.94
2022-12-27T02:50:02.974Z,100811.91
2022-12-27T02:53:08.217Z,100822.47
2022-12-27T02:56:15.291Z,100832.19
2022-12-27T02:59:08.782Z,100819.03
2022-12-27T03:01:57.297Z,100814.72
2022-12-27T03:04:29.995Z,100813.06
2022-12-27T03:07:15.117Z,100809.56
2022-12-27T03:10:03.737Z,100821.94
2022-12-27T03:13:14.315Z,100818.41
2022-12-27T03:15:59.805Z,100825.44
2022-12-27T03:19:01.729Z,100831.59
2022-12-27T03:22:01.546Z,100842.16
2022-12-27T03:24:53.860Z,100847.41
2022-12-27T03:27:28.638Z,100848.22
2022-12-27T03:30:16.403Z,100851.78
2022-12-27T03:33:08.688Z,100841.28
2022-12-27T03:36:11.108Z,100840.41
2022-12-27T03:38:52.761Z,100841.28
2022-12-27T03:42:04.198Z,100843.06
2022-12-27T03:44:31.166Z,100858.03
2022-12-27T03:47:01.393Z,100860.66
2022-12-27T03:49:34.233Z,100847.47
2022-12-27T03:52:13.534Z,100857.16
2022-12-27T03:54:42.216Z,100857.13
2022-12-27T03:57:15.478Z,100864.19
2022-12-27T03:59:42.644Z,100883.56
2022-12-27T04:02:09.907Z,100879.12
2022-12-27T04:04:37.381Z,100855.16
2022-12-27T04:07:05.464Z,100881.47
2022-12-27T04:09:51.058Z,100886.59
2022-12-27T04:12:36.909Z,100883.19
2022-12-27T04:15:22.604Z,100888.53
2022-12-27T04:18:08.105Z,100883.91
2022-12-27T04:20:53.737Z,100871.66
2022-12-27T04:23:41.361Z,100892.06
2022-12-27T04:26:27.051Z,100887.75
2022-12-27T04:29:12.311Z,100892.19
2022-12-27T04:31:57.862Z,100917.72
2022-12-27T04:34:43.575Z,100906.12
2022-12-27T04:37:17.066Z,100908.69
2022-12-27T04:40:03.515Z,100906.00
2022-12-27T04:42:49.423Z,100908.56
2022-12-27T04:45:35.133Z,100897.06
2022-12-27T04:48:20.881Z,100905.97
2022-12-27T04:51:06.485Z,100920.91
2022-12-27T04:53:52.159Z,100926.13
2022-12-27T04:56:18.964Z,100919.94
2022-12-27T04:59:04.315Z,100926.09
2022-12-27T05:01:50.118Z,100928.72
2022-12-27T05:04:17.212Z,100929.56
2022-12-27T05:06:44.251Z,100923.38
2022-12-27T05:09:29.765Z,100933.19
2022-12-27T05:12:19.992Z,100940.34
2022-12-27T05:14:46.824Z,100940.34
2022-12-27T05:17:13.923Z,100953.66
2022-12-27T05:19:41.049Z,100949.19
2022-12-27T05:22:26.574Z,100968.69
2022-12-27T05:25:11.880Z,100965.06
2022-12-27T05:27:38.760Z,100964.31
2022-12-27T05:30:06.170Z,100978.44
2022-12-27T05:32:33.071Z,100981.06
2022-12-27T05:34:59.956Z,100975.78
2022-12-27T05:37:27.216Z,100982.00
2022-12-27T05:39:54.123Z,100982.94
2022-12-27T05:42:20.966Z,100993.50
2022-12-27T05:44:47.827Z,100994.41
2022-12-27T05:47:14.780Z,100990.00
2022-12-27T05:49:41.764Z,100990.00
2022-12-27T05:52:08.624Z,100973.28
2022-12-27T05:54:35.617Z,101001.53
2022-12-27T05:57:02.639Z,101008.59
2022-12-27T05:59:29.680Z,101020.94
2022-12-27T06:01:56.648Z,101028.03
2022-12-27T06:04:23.703Z,101033.34
2022-12-27T06:06:50.626Z,101042.16
2022-12-27T06:09:21.117Z,101037.75
2022-12-27T06:11:48.020Z,101039.50
2022-12-27T06:14:15.018Z,101042.12
2022-12-27T06:16:41.871Z,101040.31
2022-12-27T06:19:09.019Z,101049.16
2022-12-27T06:21:36.309Z,101050.00
2022-12-27T06:26:30.577Z,101060.66
2022-12-27T06:28:58.516Z,101055.34
2022-12-27T06:31:26.622Z,101067.66
2022-12-27T06:33:54.019Z,101076.47
2022-12-27T06:36:23.920Z,101071.13
2022-12-27T06:38:50.797Z,101077.31
2022-12-27T06:41:18.741Z,101057.87
2022-12-27T06:43:46.773Z,101050.84
2022-12-27T06:46:17.917Z,101078.13
2022-12-27T06:48:46.077Z,101071.94
2022-12-27T06:51:14.316Z,101092.28
2022-12-27T06:53:41.244Z,101102.06
2022-12-27T06:56:10.938Z,101104.72
2022-12-27T06:58:38.017Z,101117.94
2022-12-27T07:01:08.839Z,101113.56
2022-12-27T07:03:36.956Z,101140.03
2022-12-27T07:06:05.837Z,101130.28
2022-12-27T07:08:34.445Z,101114.41
2022-12-27T07:11:07.702Z,101132.94
2022-12-27T07:13:36.630Z,101141.78
2022-12-27T07:16:05.627Z,101131.16
2022-12-27T07:18:33.050Z,101142.63
2022-12-27T07:21:03.224Z,101147.06
2022-12-27T07:23:30.178Z,101147.94
2022-12-27T07:26:08.139Z,101150.56
2022-12-27T07:28:35.331Z,101156.78
2022-12-27T07:31:10.032Z,101146.22
2022-12-27T07:33:38.262Z,101162.09
2022-12-27T07:36:09.031Z,101155.91
2022-12-27T07:38:36.205Z,101175.31
2022-12-27T07:41:03.945Z,101184.12
2022-12-27T07:43:35.380Z,101180.62
2022-12-27T07:46:12.014Z,101171.78
2022-12-27T07:48:39.241Z,101182.37
2022-12-27T07:51:06.865Z,101170.03
2022-12-27T07:53:34.191Z,101187.69
2022-12-27T07:56:07.989Z,101188.56
2022-12-27T07:58:39.628Z,101197.41
2022-12-27T08:01:07.899Z,101207.09
2022-12-27T08:03:35.608Z,101217.66
2022-12-27T08:06:03.148Z,101223.84
2022-12-27T08:08:42.051Z,101229.09
2022-12-27T08:11:09.485Z,101231.72
2022-12-27T08:13:36.710Z,101240.47
2022-12-27T08:16:04.325Z,101240.44
2022-12-27T08:18:31.472Z,101249.22
2022-12-27T08:20:58.399Z,101255.38
2022-12-27T08:23:25.289Z,101258.84
2022-12-27T08:25:52.181Z,101262.41
2022-12-27T08:28:19.188Z,101274.78
2022-12-27T08:30:46.957Z,101281.84
2022-12-27T08:33:15.297Z,101297.75
2022-12-27T08:35:53.521Z,101298.66
2022-12-27T08:38:21.139Z,101304.81
2022-12-27T08:40:48.354Z,101309.22
2022-12-27T08:43:15.411Z,101306.56
2022-12-27T08:45:42.349Z,101316.22
2022-12-27T08:48:09.378Z,101336.47
2022-12-27T08:50:36.458Z,101325.91
2022-12-27T08:53:04.975Z,101339.13
2022-12-27T08:55:32.786Z,101346.19
2022-12-27T08:58:01.949Z,101332.94
2022-12-27T09:00:30.078Z,101347.94
2022-12-27T09:02:58.081Z,101331.09
2022-12-27T09:05:26.909Z,101331.03
2022-12-27T09:07:54.415Z,101323.09
2022-12-27T09:10:22.545Z,101336.28
2022-12-27T09:12:51.987Z,101340.62
2022-12-27T09:15:19.262Z,101339.69
2022-12-27T09:17:46.241Z,101342.31
2022-12-27T09:20:13.562Z,101350.12
2022-12-27T09:22:40.752Z,101344.78
2022-12-27T09:25:10.468Z,101336.00
2022-12-27T09:27:38.214Z,101343.88
2022-12-27T09:30:07.331Z,101339.44
2022-12-27T09:32:34.565Z,101342.19
2022-12-27T09:35:03.009Z,101351.94
2022-12-27T09:37:31.083Z,101360.91
2022-12-27T09:39:58.292Z,101363.59
2022-12-27T09:43:06.248Z,101368.03
2022-12-27T09:45:39.683Z,101380.66
2022-12-27T09:48:19.411Z,101379.78
2022-12-27T09:50:57.231Z,101389.41
2022-12-27T09:53:49.089Z,101398.94
2022-12-27T09:56:35.449Z,101393.56
2022-12-27T09:59:25.390Z,101405.84
2022-12-27T10:01:52.495Z,101413.94
2022-12-27T10:04:20.179Z,101416.81
2022-12-27T10:06:49.980Z,101415.25
2022-12-27T10:09:55.476Z,101413.59
2022-12-27T10:12:29.764Z,101414.56
2022-12-27T10:15:17.059Z,101414.56
2022-12-27T10:18:07.189Z,101410.19
2022-12-27T10:20:48.487Z,101414.56
2022-12-27T10:23:23.024Z,101419.94
2022-12-27T10:25:56.295Z,101403.03
2022-12-27T10:28:28.297Z,101419.94
2022-12-27T10:30:56.221Z,101411.94
2022-12-27T10:33:29.036Z,101406.66
2022-12-27T10:35:56.972Z,101405.78
2022-12-27T10:38:25.344Z,101408.44
2022-12-27T10:40:59.299Z,101412.84
2022-12-27T10:43:37.274Z,101419.87
2022-12-27T10:46:33.440Z,101412.53
2022-12-27T10:49:21.618Z,101429.06
2022-12-27T10:51:51.805Z,101443.09
2022-12-27T10:54:26.282Z,101444.66
2022-12-27T10:56:54.313Z,101449.00
2022-12-27T10:59:24.347Z,101442.22
2022-12-27T11:02:00.244Z,101448.50
2022-12-27T11:04:28.939Z,101439.69
2022-12-27T11:07:04.885Z,101438.94
2022-12-27T11:09:51.362Z,101438.28
2022-12-27T11:12:32.304Z,101434.03
2022-12-27T11:15:19.618Z,101433.13
2022-12-27T11:18:04.706Z,101428.75
2022-12-27T11:20:37.252Z,101436.72
2022-12-27T11:23:11.679Z,101422.59
2022-12-27T11:25:59.596Z,101445.28
2022-12-27T11:28:40.514Z,101430.91
2022-12-27T11:31:11.483Z,101419.59
2022-12-27T11:33:49.279Z,101435.53
2022-12-27T11:36:32.140Z,101441.00
2022-12-27T11:39:00.730Z,101442.91
2022-12-27T11:41:42.955Z,101449.94
2022-12-27T11:44:32.188Z,101480.03
2022-12-27T11:47:07.462Z,101463.09
2022-12-27T11:49:46.471Z,101457.91
2022-12-27T11:52:32.612Z,101465.75
2022-12-27T11:55:35.140Z,101452.59
2022-12-27T11:58:27.100Z,101459.47
2022-12-27T12:01:05.872Z,101463.25
2022-12-27T12:03:56.111Z,101479.94
2022-12-27T12:06:34.631Z,101479.66
2022-12-27T12:09:19.777Z,101488.88
2022-12-27T12:11:55.225Z,101471.00
2022-12-27T12:14:57.202Z,101493.25
2022-12-27T12:17:45.551Z,101490.63
2022-12-27T12:20:42.289Z,101500.06
2022-12-27T12:23:12.858Z,101491.37
2022-12-27T12:26:05.572Z,101494.87
2022-12-27T12:28:59.577Z,101487.03
2022-12-27T12:32:08.342Z,101487.81
2022-12-27T12:35:18.460Z,101480.69
2022-12-27T12:37:54.760Z,101479.88
2022-12-27T13:06:51.445Z,101454.31
2022-12-27T13:09:37.460Z,101467.59
2022-12-27T13:16:08.418Z,101472.06
2022-12-27T13:18:38.322Z,101469.31
2022-12-27T13:21:23.205Z,101468.38
2022-12-27T13:24:35.494Z,101472.03
2022-12-27T13:27:09.409Z,101482.59
2022-12-27T13:30:02.988Z,101490.47
2022-12-27T13:32:59.341Z,101502.03
2022-12-27T13:35:41.785Z,101482.47
2022-12-27T13:38:19.264Z,101510.97
2022-12-27T13:40:54.678Z,101513.62
2022-12-27T13:43:45.796Z,101520.72
2022-12-27T13:46:57.309Z,101533.06
2022-12-27T13:49:49.097Z,101523.34
2022-12-27T13:52:16.180Z,101526.03
2022-12-27T13:55:03.985Z,101526.91
2022-12-27T13:58:17.060Z,101522.47
2022-12-27T14:01:04.401Z,101534.84
2022-12-27T14:03:59.136Z,101530.38
2022-12-27T14:06:37.861Z,101544.56
2022-12-27T14:09:04.868Z,101548.94
2022-12-27T14:11:50.115Z,101558.56
2022-12-27T14:14:20.646Z,101556.84
2022-12-27T14:17:04.176Z,101556.84
2022-12-27T14:19:43.119Z,101568.44
2022-12-27T14:22:28.014Z,101573.63
2022-12-27T14:25:36.177Z,101570.56
2022-12-27T14:28:27.529Z,101570.06
2022-12-27T14:31:19.218Z,101582.75
2022-12-27T14:34:09.455Z,101584.19
2022-12-27T14:36:58.159Z,101584.84
2022-12-27T14:39:53.396Z,101584.22
2022-12-27T14:42:28.874Z,101591.00
2022-12-27T14:45:17.970Z,101590.41
2022-12-27T14:48:12.756Z,101595.34
2022-12-27T14:51:50.479Z,101603.00
2022-12-27T14:54:51.284Z,101601.09
2022-12-27T14:57:33.526Z,101604.59
2022-12-27T15:00:01.014Z,101609.72
2022-12-27T15:02:47.638Z,101602.97
2022-12-27T15:05:17.613Z,101609.97
2022-12-27T15:08:27.941Z,101602.81
2022-12-27T15:11:30.280Z,101610.53
2022-12-27T15:14:17.616Z,101602.41
2022-12-27T15:16:47.239Z,101613.72
2022-12-27T15:19:19.886Z,101620.69
2022-12-27T15:22:08.717Z,101638.06
2022-12-27T15:24:56.456Z,101644.16
2022-12-27T15:27:59.921Z,101637.94
2022-12-27T15:30:34.170Z,101648.41
2022-12-27T15:33:29.616Z,101656.87
2022-12-27T15:36:05.397Z,101658.62
2022-12-27T15:38:54.052Z,101670.66
2022-12-27T15:42:05.315Z,101683.81
2022-12-27T15:44:44.234Z,101679.38
2022-12-27T15:47:48.907Z,101695.09
2022-12-27T15:50:34.240Z,101697.63
2022-12-27T15:53:37.205Z,101699.31
2022-12-27T15:56:30.912Z,101701.91
2022-12-27T15:59:36.780Z,101706.22
2022-12-27T16:02:30.951Z,101717.53
2022-12-27T16:05:07.890Z,101721.00
2022-12-27T16:07:45.527Z,101725.28
2022-12-27T16:10:32.922Z,101725.28
2022-12-27T16:13:27.692Z,101733.97
2022-12-27T16:15:55.437Z,101728.59
2022-12-27T16:18:22.294Z,101741.66
2022-12-27T16:21:01.078Z,101745.13
2022-12-27T16:23:32.582Z,101752.94
2022-12-27T16:26:25.367Z,101747.59
2022-12-27T16:28:59.327Z,101747.47
2022-12-27T16:31:31.692Z,101746.69
2022-12-27T16:34:19.669Z,101756.31
2022-12-27T16:36:49.536Z,101764.06
2022-12-27T16:39:22.375Z,101755.25
2022-12-27T16:41:55.831Z,101756.88
2022-12-27T16:44:38.365Z,101756.81
2022-12-27T16:47:27.161Z,101765.56
2022-12-27T16:49:59.963Z,101758.22
2022-12-27T16:53:08.212Z,101759.66
2022-12-27T16:55:49.966Z,101755.84
2022-12-27T16:58:19.671Z,101749.47
2022-12-27T17:00:56.055Z,101753.53
2022-12-27T17:03:36.439Z,101759.69
2022-12-27T17:06:32.423Z,101753.53
2022-12-27T17:09:10.356Z,101749.59
2022-12-27T17:11:43.124Z,101752.00
2022-12-27T17:14:19.004Z,101752.81
2022-12-27T17:16:50.090Z,101759.00
2022-12-27T17:19:27.307Z,101757.09
2022-12-27T17:22:01.916Z,101760.09
2022-12-27T17:24:30.129Z,101759.66
2022-12-27T17:27:08.656Z,101770.09
2022-12-27T17:30:16.926Z,101770.69
2022-12-27T17:33:02.709Z,101771.12
2022-12-27T17:35:38.504Z,101775.44
2022-12-27T17:38:11.344Z,101766.78
2022-12-27T17:41:00.251Z,101766.50
2022-12-27T17:44:40.724Z,101771.66
2022-12-27T17:47:31.111Z,101774.91
2022-12-27T17:50:01.161Z,101781.72
2022-12-27T17:52:47.045Z,101772.91
2022-12-27T17:55:39.978Z,101780.75
2022-12-27T17:58:12.502Z,101782.06
2022-12-27T18:00:55.054Z,101772.25
2022-12-27T18:03:26.554Z,101775.22
2022-12-27T18:05:53.674Z,101777.59
2022-12-27T18:08:28.798Z,101784.22
2022-12-27T18:10:57.957Z,101788.19
2022-12-27T18:13:27.724Z,101791.66
2022-12-27T18:15:56.332Z,101800.16
2022-12-27T18:18:34.648Z,101795.66
2022-12-27T18:21:07.171Z,101791.69
2022-12-27T18:23:43.602Z,101794.88
2022-12-27T18:26:13.857Z,101788.97
2022-12-27T18:28:42.904Z,101781.47
2022-12-27T18:31:32.967Z,101787.25
2022-12-27T18:34:03.631Z,101792.75
2022-12-27T18:36:48.179Z,101787.31
2022-12-27T18:39:34.891Z,101788.81
2022-12-27T18:42:12.861Z,101791.88
2022-12-27T18:44:47.037Z,101786.97
2022-12-27T18:47:20.495Z,101793.31
2022-12-27T18:50:02.808Z,101791.75
2022-12-27T18:52:35.098Z,101800.66
2022-12-27T18:55:18.017Z,101801.19
2022-12-27T18:57:46.845Z,101799.25
2022-12-27T19:00:26.719Z,101806.31
2022-12-27T19:03:06.291Z,101797.13
2022-12-27T19:05:36.407Z,101789.91
2022-12-27T19:08:16.637Z,101804.41
2022-12-27T19:10:49.894Z,101800.84
2022-12-27T19:13:43.568Z,101787.62
2022-12-27T19:16:23.474Z,101801.66
2022-12-27T19:18:53.961Z,101787.78
2022-12-27T19:21:31.155Z,101798.81
2022-12-27T19:24:30.632Z,101799.56
2022-12-27T19:27:01.475Z,101800.06
2022-12-27T19:29:37.909Z,101791.88
2022-12-27T19:32:10.712Z,101787.06
2022-12-27T19:34:52.969Z,101793.22
2022-12-27T19:37:24.699Z,101780.47
2022-12-27T19:39:52.077Z,101796.75
2022-12-27T19:42:30.900Z,101791.62
2022-12-27T19:44:58.269Z,101785.81
2022-12-27T19:47:27.438Z,101791.16
2022-12-27T19:49:55.032Z,101787.66
2022-12-27T19:52:25.526Z,101789.91
2022-12-27T19:54:58.320Z,101786.50
2022-12-27T19:57:25.416Z,101787.13
2022-12-27T19:59:52.590Z,101786.53
2022-12-27T20:02:21.380Z,101797.00
2022-12-27T20:04:49.065Z,101805.03
2022-12-27T20:07:25.975Z,101805.22
2022-12-27T20:09:53.557Z,101805.22
2022-12-27T20:12:20.919Z,101810.09
2022-12-27T20:14:49.164Z,101795.97
2022-12-27T20:17:16.955Z,101800.81
2022-12-27T20:19:44.401Z,101793.97
2022-12-27T20:22:11.761Z,101792.31
2022-12-27T20:24:39.068Z,101793.06
2022-12-27T20:27:07.130Z,101802.06
2022-12-27T20:29:36.658Z,101814.13
2022-12-27T20:32:04.818Z,101816.50
2022-12-27T20:34:32.745Z,101818.72
2022-12-27T20:37:00.575Z,101813.19
2022-12-27T20:39:28.149Z,101806.13
2022-12-27T20:41:56.330Z,101802.06
2022-12-27T20:44:23.737Z,101805.38
2022-12-27T20:46:51.171Z,101806.34
2022-12-27T20:49:18.649Z,101798.78
2022-12-27T20:51:46.277Z,101825.00
2022-12-27T20:54:15.155Z,101833.53
2022-12-27T20:56:42.085Z,101813.03
2022-12-27T20:59:09.612Z,101826.66
2022-12-27T21:01:36.918Z,101824.19
2022-12-27T21:04:04.886Z,101821.22
2022-12-27T21:06:31.813Z,101822.94
2022-12-27T21:08:58.808Z,101823.72
2022-12-27T21:11:33.472Z,101819.25
2022-12-27T21:14:02.532Z,101826.63
2022-12-27T21:16:32.343Z,101828.50
2022-12-27T21:19:03.575Z,101825.22
2022-12-27T21:21:32.636Z,101827.00
2022-12-27T21:24:00.201Z,101827.69
2022-12-27T21:26:29.980Z,101838.72
2022-12-27T21:29:00.238Z,101846.03
2022-12-27T21:31:28.189Z,101845.28
2022-12-27T21:33:55.144Z,101842.31
2022-12-27T21:36:24.989Z,101844.47
2022-12-27T21:38:52.685Z,101841.28
2022-12-27T21:41:46.324Z,101833.50
2022-12-27T21:44:13.298Z,101833.72
2022-12-27T21:46:41.901Z,101836.34
2022-12-27T21:49:11.037Z,101822.34
2022-12-27T21:51:39.037Z,101840.13
2022-12-27T21:54:06.840Z,101832.38
2022-12-27T21:56:33.801Z,101847.34
2022-12-27T21:59:03.058Z,101841.25
2022-12-27T22:01:50.260Z,101840.94
2022-12-27T22:04:18.478Z,101852.19
2022-12-27T22:06:47.438Z,101849.75
2022-12-27T22:09:14.812Z,101840.94
2022-12-27T22:11:41.710Z,101835.88
2022-12-27T22:14:08.603Z,101829.69
2022-12-27T22:16:37.584Z,101838.88
2022-12-27T22:19:10.077Z,101844.59
2022-12-27T22:21:38.796Z,101851.31
2022-12-27T22:24:12.892Z,101849.44
2022-12-27T22:26:40.647Z,101851.22
2022-12-27T22:29:07.996Z,101846.81
2022-12-27T22:31:37.953Z,101855.53
2022-12-27T22:34:06.452Z,101851.88
2022-12-27T22:36:34.359Z,101852.03
2022-12-27T22:39:02.198Z,101843.09
2022-12-27T22:41:34.327Z,101849.22
2022-12-27T22:44:03.736Z,101846.59
2022-12-27T22:46:51.022Z,101851.50
2022-12-27T22:49:18.457Z,101847.78
2022-12-27T22:51:45.688Z,101853.03
2022-12-27T22:54:12.500Z,101850.37
2022-12-27T22:56:41.974Z,101852.00
2022-12-27T22:59:11.581Z,101851.03
2022-12-27T23:01:39.295Z,101854.81
2022-12-27T23:04:07.928Z,101854.47
2022-12-27T23:06:36.042Z,101855.31
2022-12-27T23:09:03.874Z,101856.69
2022-12-27T23:11:34.404Z,101850.50
2022-12-27T23:14:12.421Z,101841.62
2022-12-27T23:16:45.122Z,101847.72
2022-12-27T23:19:13.920Z,101837.19
2022-12-27T23:21:41.959Z,101833.53
2022-12-27T23:24:09.892Z,101836.91
2022-12-27T23:26:36.748Z,101834.47
2022-12-27T23:29:04.273Z,101833.41
2022-12-27T23:31:31.957Z,101831.72
2022-12-27T23:33:58.992Z,101828.72
2022-12-27T23:36:25.993Z,101834.88
2022-12-27T23:38:52.989Z,101824.59
2022-12-27T23:41:22.898Z,101817.91
2022-12-27T23:43:52.701Z,101818.88
2022-12-27T23:46:28.180Z,101826.47
2022-12-27T23:48:56.671Z,101830.69
2022-12-27T23:51:23.923Z,101827.03
2022-12-27T23:53:51.186Z,101816.37
2022-12-27T23:56:21.532Z,101819.81
2022-12-27T23:58:50.333Z,101805.38
